Terminal Aerodrome Forecast
Issued by NWS Melbourne, FL

Home | Current Version | Previous Version | Text Only | Print | Product List | Glossary On
Versions: 1 2 3 4 5 6 7 8 9 10 11 12 13 14 15 16 17 18 19 20 21 22 23 24
000
FTUS42 KMLB 302050 AAA
TAFMCO
TAF AMD
KMCO 302050Z 3021/3118 10012KT P6SM VCSH SCT050
      TEMPO 3021/3022 BKN050
     FM310100 09006KT P6SM SCT035 SCT060 BKN250
     FM310600 09003KT P6SM SCT030
     FM311400 11006KT P6SM VCSH FEW015 SCT025 BKN080=

USA.gov is the U.S. government's official web portal to all federal, state and local government web resources and services.